Time;durP1;ratioP1;P1;durP2;ratioP2;P2;SDS_P1;SDS_P2;PMS_P1;PMS_P2;Temp;Humidity;BMP_temperature;BMP_pressure;BME280_temperature;BME280_humidity;BME280_pressure;Samples;Min_cycle;Max_cycle;Signal;HPM_P1;HPM_P2
2022/09/17 00:02:12;;;;;;;;;;;;;;;12.11;77.63;94869.81;5069012;28;20020;-64
2022/09/17 00:04:38;;;;;;;;;;;;;;;11.93;78.41;94873.66;5067984;28;20009;-64
2022/09/17 00:07:03;;;;;;;;;;;;;;;11.99;77.22;94875.06;5051300;28;20013;-64
2022/09/17 00:09:28;;;;;;;;;;;;;;;12.11;78.04;94875.16;5051882;28;20010;-63
2022/09/17 00:11:53;;;;;;;;;;;;;;;11.69;77.86;94879.50;5069150;28;20017;-64
2022/09/17 00:14:18;;;;;;;;;;;;;;;11.87;78.38;94858.94;5069065;28;20070;-64
2022/09/17 00:16:45;;;;;;;;;;;;;;;11.81;76.92;94868.94;5050999;28;20060;-63
2022/09/17 00:19:18;;;;;;;;;;;;;;;11.71;77.81;94869.28;5068258;28;20040;-64
2022/09/17 00:21:43;;;;;;;;;;;;;;;12.25;74.84;94874.97;5068213;28;20013;-64
2022/09/17 00:24:10;;;;;;;;;;;;;;;12.00;75.49;94860.63;5051173;28;20351;-65
2022/09/17 00:26:35;;;;;;;;;;;;;;;11.75;75.17;94859.56;5068416;28;20420;-63
2022/09/17 00:29:01;;;;;;;;;;;;;;;11.64;76.01;94866.34;5050842;28;20246;-64
2022/09/17 00:31:27;;;;;;;;;;;;;;;11.54;75.35;94866.66;5048829;28;20062;-63
2022/09/17 00:33:53;;;;;;;;;;;;;;;11.99;73.76;94868.94;5050382;28;20066;-64
2022/09/17 00:36:19;;;;;;;;;;;;;;;11.79;74.56;94875.72;5068505;28;20108;-64
2022/09/17 00:38:47;;;;;;;;;;;;;;;11.99;73.57;94876.94;5068588;28;20010;-64
2022/09/17 00:41:12;;;;;;;;;;;;;;;12.67;73.20;94883.06;5049886;28;20400;-64
2022/09/17 00:43:43;;;;;;;;;;;;;;;12.34;71.28;94886.38;5051871;28;20026;-64
2022/09/17 00:46:29;;;;;;;;;;;;;;;12.30;72.27;94890.00;5067306;28;20024;-64
2022/09/17 00:48:56;;;;;;;;;;;;;;;12.42;71.91;94893.53;5051041;28;20016;-64
2022/09/17 00:51:48;;;;;;;;;;;;;;;11.87;73.61;94889.03;5063520;28;20104;-65
2022/09/17 00:54:14;;;;;;;;;;;;;;;12.35;72.53;94884.47;5063571;28;20059;-64
2022/09/17 00:56:40;;;;;;;;;;;;;;;12.22;72.01;94888.91;5051692;28;20017;-64
2022/09/17 00:59:06;;;;;;;;;;;;;;;12.69;72.06;94888.84;5050224;28;20100;-64
2022/09/17 01:01:32;;;;;;;;;;;;;;;12.47;72.18;94888.03;5046498;28;20126;-64
2022/09/17 01:03:57;;;;;;;;;;;;;;;12.45;72.46;94898.25;5049392;28;20090;-64
2022/09/17 01:06:43;;;;;;;;;;;;;;;12.52;72.51;94894.28;5066804;28;20385;-64
2022/09/17 01:09:14;;;;;;;;;;;;;;;12.66;70.83;94897.50;5049649;28;20067;-64
2022/09/17 01:11:49;;;;;;;;;;;;;;;13.23;71.89;94899.69;5039965;28;20025;-64
2022/09/17 01:14:35;;;;;;;;;;;;;;;13.25;69.31;94882.19;5050585;28;20032;-65
2022/09/17 01:17:14;;;;;;;;;;;;;;;13.26;70.35;94888.34;5068451;28;20061;-65
2022/09/17 01:19:51;;;;;;;;;;;;;;;13.60;70.47;94881.13;5068265;28;20009;-64
2022/09/17 01:22:23;;;;;;;;;;;;;;;13.71;70.09;94885.72;5049399;28;20033;-65
2022/09/17 01:25:06;;;;;;;;;;;;;;;13.18;68.93;94884.59;5066980;28;20021;-64
2022/09/17 01:27:34;;;;;;;;;;;;;;;12.87;69.27;94876.19;5031453;28;20410;-64
2022/09/17 01:30:13;;;;;;;;;;;;;;;12.44;70.50;94879.91;5044418;28;20116;-64
2022/09/17 01:32:51;;;;;;;;;;;;;;;12.29;70.99;94889.22;5049375;28;20543;-64
2022/09/17 01:35:20;;;;;;;;;;;;;;;12.49;71.20;94896.50;5045410;28;20013;-64
2022/09/17 01:37:57;;;;;;;;;;;;;;;12.90;70.65;94889.69;5067397;28;20222;-64
2022/09/17 01:40:29;;;;;;;;;;;;;;;12.92;69.52;94895.47;5053439;28;20009;-64
2022/09/17 01:43:03;;;;;;;;;;;;;;;12.95;69.26;94897.50;5072800;28;20031;-64
2022/09/17 01:45:35;;;;;;;;;;;;;;;12.57;70.52;94888.75;5071618;28;20013;-65
2022/09/17 01:48:01;;;;;;;;;;;;;;;11.93;70.32;94834.47;5052859;28;20010;-64
2022/09/17 01:50:28;;;;;;;;;;;;;;;12.42;71.37;94896.19;5048390;28;20074;-65
2022/09/17 01:52:55;;;;;;;;;;;;;;;12.55;71.43;94890.97;5086010;28;20009;-64
2022/09/17 01:55:23;;;;;;;;;;;;;;;12.34;70.99;94891.72;5071672;28;20013;-64
2022/09/17 01:57:51;;;;;;;;;;;;;;;12.50;70.59;94889.28;5054638;28;20016;-64
2022/09/17 02:00:17;;;;;;;;;;;;;;;12.96;71.29;94891.03;5070207;28;20103;-65
2022/09/17 02:03:04;;;;;;;;;;;;;;;12.05;71.27;94887.09;5070509;28;20171;-64
2022/09/17 02:05:48;;;;;;;;;;;;;;;12.48;71.03;94892.25;5071492;28;20020;-64
2022/09/17 02:08:17;;;;;;;;;;;;;;;11.94;70.64;94884.00;5071934;28;20009;-63
2022/09/17 02:10:48;;;;;;;;;;;;;;;11.65;71.22;94897.19;5053105;28;20112;-63
2022/09/17 02:13:21;;;;;;;;;;;;;;;11.55;72.30;94894.88;5071508;28;20016;-64
2022/09/17 02:15:49;;;;;;;;;;;;;;;11.46;72.86;94892.19;5051606;28;20489;-64
2022/09/17 02:18:28;;;;;;;;;;;;;;;11.43;73.02;94890.19;5053978;28;20044;-65
2022/09/17 02:21:00;;;;;;;;;;;;;;;11.65;73.47;94883.88;5052455;28;20107;-66
2022/09/17 02:23:28;;;;;;;;;;;;;;;12.31;71.32;94886.22;5070514;28;20009;-64
2022/09/17 02:26:01;;;;;;;;;;;;;;;12.45;71.01;94879.56;5052300;28;20096;-65
2022/09/17 02:28:32;;;;;;;;;;;;;;;11.89;71.72;94878.06;5070789;28;20571;-64
2022/09/17 02:30:57;;;;;;;;;;;;;;;11.82;72.59;94864.44;5069261;28;20038;-64
2022/09/17 02:33:23;;;;;;;;;;;;;;;12.26;72.05;94870.41;5034013;28;20014;-65
2022/09/17 02:35:49;;;;;;;;;;;;;;;11.80;72.11;94867.38;5066798;28;20555;-65
2022/09/17 02:38:20;;;;;;;;;;;;;;;11.51;72.29;94870.72;5051548;28;20017;-65
2022/09/17 02:40:49;;;;;;;;;;;;;;;11.59;71.88;94858.50;5070873;28;20001;-64
2022/09/17 02:43:17;;;;;;;;;;;;;;;11.59;72.67;94850.50;5069621;28;20369;-65
2022/09/17 02:46:18;;;;;;;;;;;;;;;11.93;71.96;94849.69;5052793;28;20465;-64
2022/09/17 02:48:46;;;;;;;;;;;;;;;12.28;71.22;94844.97;4952428;28;20058;-64
2022/09/17 02:51:25;;;;;;;;;;;;;;;11.75;70.56;94834.81;5032721;28;20023;-64
2022/09/17 02:54:09;;;;;;;;;;;;;;;11.90;69.87;94840.44;5071179;28;20056;-64
2022/09/17 02:56:54;;;;;;;;;;;;;;;11.97;70.52;94835.38;5070383;28;20116;-65
2022/09/17 02:59:32;;;;;;;;;;;;;;;11.67;70.44;94842.50;5070143;28;20099;-64
2022/09/17 03:02:01;;;;;;;;;;;;;;;11.53;70.62;94825.16;5048144;28;20013;-64
2022/09/17 03:04:28;;;;;;;;;;;;;;;11.69;70.99;94826.97;5071250;28;20005;-65
2022/09/17 03:06:54;;;;;;;;;;;;;;;11.39;71.34;94831.44;5052117;28;20381;-64
2022/09/17 03:09:19;;;;;;;;;;;;;;;10.98;71.88;94847.91;5069888;28;20009;-65
2022/09/17 03:11:44;;;;;;;;;;;;;;;11.36;73.13;94823.28;5069998;28;20495;-64
2022/09/17 03:14:09;;;;;;;;;;;;;;;11.41;72.18;94826.59;5050263;28;20009;-65
2022/09/17 03:16:34;;;;;;;;;;;;;;;11.08;72.22;94828.19;5071101;28;20036;-65
2022/09/17 03:18:59;;;;;;;;;;;;;;;11.10;73.91;94828.63;5068873;28;20031;-64
2022/09/17 03:21:25;;;;;;;;;;;;;;;10.96;73.96;94833.38;5051962;28;20013;-64
2022/09/17 03:23:50;;;;;;;;;;;;;;;11.21;73.08;94840.56;5069861;28;20584;-64
2022/09/17 03:26:15;;;;;;;;;;;;;;;11.08;73.86;94830.84;5070001;28;20021;-65
2022/09/17 03:28:40;;;;;;;;;;;;;;;11.31;72.46;94831.44;5051004;28;20663;-64
2022/09/17 03:31:06;;;;;;;;;;;;;;;11.35;72.25;94840.38;5067737;28;20021;-65
2022/09/17 03:33:31;;;;;;;;;;;;;;;11.34;73.65;94834.25;5070584;28;20016;-64
2022/09/17 03:35:56;;;;;;;;;;;;;;;11.10;73.88;94841.94;5069605;28;20485;-65
2022/09/17 03:38:22;;;;;;;;;;;;;;;10.80;74.69;94835.69;5050952;28;20014;-65
2022/09/17 03:41:06;;;;;;;;;;;;;;;11.30;73.27;94835.97;5069812;28;20009;-64
2022/09/17 03:43:31;;;;;;;;;;;;;;;10.85;74.47;94839.00;5052544;28;20009;-65
2022/09/17 03:45:56;;;;;;;;;;;;;;;11.04;74.67;94840.53;5051697;28;20393;-64
2022/09/17 03:48:22;;;;;;;;;;;;;;;11.30;74.33;94841.31;5068268;28;20098;-64
2022/09/17 03:50:47;;;;;;;;;;;;;;;11.41;72.49;94831.09;5051523;28;20021;-64
2022/09/17 03:53:12;;;;;;;;;;;;;;;11.08;73.72;94834.28;5068986;28;20445;-64
2022/09/17 03:55:37;;;;;;;;;;;;;;;11.23;74.13;94832.25;5069554;28;20010;-64
2022/09/17 03:58:03;;;;;;;;;;;;;;;11.97;71.39;94826.59;5050666;28;20021;-64
2022/09/17 04:00:28;;;;;;;;;;;;;;;12.28;70.71;94836.19;5050068;28;20014;-65
2022/09/17 04:02:53;;;;;;;;;;;;;;;11.02;73.22;94843.53;5070303;28;20108;-64
2022/09/17 04:05:18;;;;;;;;;;;;;;;10.74;74.71;94837.72;5051386;28;20017;-64
2022/09/17 04:07:44;;;;;;;;;;;;;;;10.60;75.28;94839.75;5067778;28;20035;-64
2022/09/17 04:10:09;;;;;;;;;;;;;;;10.85;74.34;94835.53;5069468;28;20055;-65
2022/09/17 04:12:34;;;;;;;;;;;;;;;10.96;73.26;94849.34;5050335;28;20016;-64
2022/09/17 04:14:59;;;;;;;;;;;;;;;11.23;73.59;94849.00;5051058;28;20016;-64
2022/09/17 04:17:25;;;;;;;;;;;;;;;10.93;74.06;94851.50;5067598;28;20017;-65
2022/09/17 04:19:50;;;;;;;;;;;;;;;10.61;74.16;94844.75;5051259;28;20654;-66
2022/09/17 04:22:15;;;;;;;;;;;;;;;10.83;73.83;94835.84;5050779;28;20014;-65
2022/09/17 04:24:40;;;;;;;;;;;;;;;11.30;71.80;94832.53;5051940;28;20401;-64
2022/09/17 04:27:05;;;;;;;;;;;;;;;11.28;72.54;94822.22;5049251;28;20017;-65
2022/09/17 04:29:31;;;;;;;;;;;;;;;11.17;72.75;94819.09;5051505;28;20465;-64
2022/09/17 04:31:56;;;;;;;;;;;;;;;10.93;73.51;94832.09;5049599;28;20017;-64
2022/09/17 04:34:21;;;;;;;;;;;;;;;10.57;74.52;94825.19;5069547;28;20012;-65
2022/09/17 04:36:46;;;;;;;;;;;;;;;10.54;75.21;94833.78;5050821;28;20031;-64
2022/09/17 04:39:12;;;;;;;;;;;;;;;10.62;75.18;94842.88;5046939;28;20013;-65
2022/09/17 04:41:37;;;;;;;;;;;;;;;10.78;74.91;94835.22;5069173;28;20013;-64
2022/09/17 04:44:02;;;;;;;;;;;;;;;11.17;71.73;94842.28;5050755;28;20016;-64
2022/09/17 04:46:27;;;;;;;;;;;;;;;11.38;72.61;94847.72;5068718;28;20013;-63
2022/09/17 04:48:53;;;;;;;;;;;;;;;10.59;73.52;94851.47;5049686;28;20055;-64
2022/09/17 04:51:18;;;;;;;;;;;;;;;10.49;73.70;94851.75;5068931;28;20024;-64
2022/09/17 04:53:43;;;;;;;;;;;;;;;10.90;72.24;94862.78;5067422;28;20013;-64
2022/09/17 04:56:08;;;;;;;;;;;;;;;11.63;70.18;94872.78;5068682;28;20489;-63
2022/09/17 04:58:34;;;;;;;;;;;;;;;11.64;69.47;94884.97;5067544;28;20013;-63
2022/09/17 05:00:59;;;;;;;;;;;;;;;12.36;69.20;94896.72;5050698;28;20017;-63
2022/09/17 05:03:24;;;;;;;;;;;;;;;12.90;68.69;94913.72;5050440;28;20017;-65
2022/09/17 05:05:49;;;;;;;;;;;;;;;12.99;66.15;94922.41;5069136;28;20020;-64
2022/09/17 05:08:15;;;;;;;;;;;;;;;13.31;66.37;94924.75;5067536;28;20013;-64
2022/09/17 05:10:40;;;;;;;;;;;;;;;13.35;65.19;94933.69;5068226;28;20025;-64
2022/09/17 05:13:05;;;;;;;;;;;;;;;12.70;65.18;94941.13;5067107;28;20478;-64
2022/09/17 05:15:30;;;;;;;;;;;;;;;12.77;65.48;94935.28;5072702;28;20482;-64
2022/09/17 05:17:56;;;;;;;;;;;;;;;12.77;64.91;94944.06;5073462;28;20015;-64
2022/09/17 05:20:21;;;;;;;;;;;;;;;12.92;65.79;94953.41;5071526;28;20400;-63
2022/09/17 05:22:48;;;;;;;;;;;;;;;12.75;65.48;94954.28;5053819;28;20052;-63
2022/09/17 05:25:14;;;;;;;;;;;;;;;12.68;64.34;94962.00;5072496;28;20005;-63
2022/09/17 05:27:39;;;;;;;;;;;;;;;12.40;65.29;94967.78;5055138;28;20055;-63
2022/09/17 05:30:05;;;;;;;;;;;;;;;12.45;65.74;94972.16;5053747;28;20428;-63
2022/09/17 05:32:30;;;;;;;;;;;;;;;12.13;66.47;94982.28;5052061;28;20009;-63
2022/09/17 05:34:56;;;;;;;;;;;;;;;12.47;65.31;94985.94;5055010;28;20020;-63
2022/09/17 05:37:21;;;;;;;;;;;;;;;12.12;67.94;94995.91;5052963;28;20009;-63
2022/09/17 05:39:46;;;;;;;;;;;;;;;11.87;67.86;94995.63;5053754;28;20024;-64
2022/09/17 05:42:11;;;;;;;;;;;;;;;11.43;69.84;94996.72;5071172;28;20013;-63
2022/09/17 05:44:37;;;;;;;;;;;;;;;11.96;68.26;95001.75;5053550;28;20017;-63
2022/09/17 05:47:02;;;;;;;;;;;;;;;11.21;69.95;95005.63;5053983;28;20013;-64
2022/09/17 05:49:27;;;;;;;;;;;;;;;11.19;69.74;95007.78;5053511;28;20488;-65
2022/09/17 05:51:52;;;;;;;;;;;;;;;11.35;70.16;95008.91;5071143;28;20123;-64
2022/09/17 05:54:18;;;;;;;;;;;;;;;10.73;71.70;95022.38;5071623;28;20005;-65
2022/09/17 05:56:43;;;;;;;;;;;;;;;10.77;71.29;95025.22;5054589;28;20466;-65
2022/09/17 05:59:08;;;;;;;;;;;;;;;10.68;71.33;95025.16;5053164;28;20102;-68
2022/09/17 06:01:34;;;;;;;;;;;;;;;11.54;69.67;95018.50;5069243;28;20009;-64
2022/09/17 06:04:01;;;;;;;;;;;;;;;11.48;68.55;95020.53;5071536;28;20016;-64
2022/09/17 06:06:28;;;;;;;;;;;;;;;11.52;68.64;95021.47;5072503;28;20010;-63
2022/09/17 06:08:53;;;;;;;;;;;;;;;11.05;70.23;95026.53;5068179;28;20013;-64
2022/09/17 06:11:18;;;;;;;;;;;;;;;11.39;69.68;95017.84;5072520;28;20020;-64
2022/09/17 06:13:44;;;;;;;;;;;;;;;11.79;67.81;95008.94;5070342;28;20547;-64
2022/09/17 06:16:10;;;;;;;;;;;;;;;11.29;68.65;95009.38;5071515;28;20473;-64
2022/09/17 06:18:35;;;;;;;;;;;;;;;11.40;69.67;95003.44;5070737;28;20020;-64
2022/09/17 06:21:02;;;;;;;;;;;;;;;11.21;68.87;95000.28;5071162;28;20013;-64
2022/09/17 06:23:30;;;;;;;;;;;;;;;11.23;69.41;95005.31;5070415;28;20389;-63
2022/09/17 06:25:57;;;;;;;;;;;;;;;11.25;69.36;95008.41;5053094;28;20111;-64
2022/09/17 06:28:23;;;;;;;;;;;;;;;10.97;69.96;95011.34;5049093;28;20013;-64
2022/09/17 06:30:48;;;;;;;;;;;;;;;10.99;70.79;95011.03;5066309;28;20017;-63
2022/09/17 06:33:13;;;;;;;;;;;;;;;11.11;68.77;95001.38;5071911;28;20005;-64
2022/09/17 06:35:39;;;;;;;;;;;;;;;10.96;70.05;95001.81;5064197;28;20088;-66
2022/09/17 06:38:04;;;;;;;;;;;;;;;11.62;70.22;94997.19;5051383;28;20013;-64
2022/09/17 06:40:30;;;;;;;;;;;;;;;11.41;68.50;94997.03;5069354;28;20578;-64
2022/09/17 06:42:58;;;;;;;;;;;;;;;11.78;66.58;95000.16;5070335;28;20020;-64
2022/09/17 06:45:24;;;;;;;;;;;;;;;11.36;67.54;94999.03;5071549;28;20118;-63
2022/09/17 06:47:49;;;;;;;;;;;;;;;11.11;67.68;94987.28;5051693;28;20485;-63
2022/09/17 06:50:14;;;;;;;;;;;;;;;11.54;67.24;95002.50;5069069;28;20108;-62
2022/09/17 06:52:46;;;;;;;;;;;;;;;10.91;68.15;95016.03;5062703;28;20380;-63
2022/09/17 06:55:11;;;;;;;;;;;;;;;10.39;70.36;95007.06;5062984;28;20484;-63
2022/09/17 06:57:37;;;;;;;;;;;;;;;11.61;67.18;95008.94;5051099;28;20017;-64
2022/09/17 07:00:02;;;;;;;;;;;;;;;11.59;66.38;95002.34;5070351;28;20020;-63
2022/09/17 07:02:28;;;;;;;;;;;;;;;11.54;66.62;94997.19;5069298;28;20032;-64
2022/09/17 07:04:54;;;;;;;;;;;;;;;10.77;69.16;94996.72;5051868;28;20009;-64
2022/09/17 07:07:19;;;;;;;;;;;;;;;10.94;68.79;94988.78;5067847;28;20010;-64
2022/09/17 07:09:44;;;;;;;;;;;;;;;10.77;69.27;95003.94;5069802;28;20507;-66
2022/09/17 07:12:09;;;;;;;;;;;;;;;11.27;68.66;94996.38;5065344;28;20466;-65
2022/09/17 07:14:35;;;;;;;;;;;;;;;11.53;66.58;94995.63;5066187;28;20013;-64
2022/09/17 07:17:00;;;;;;;;;;;;;;;11.41;66.97;94996.22;5058157;28;20067;-66
2022/09/17 07:19:25;;;;;;;;;;;;;;;11.80;65.78;94994.50;5065790;28;20066;-66
2022/09/17 07:21:50;;;;;;;;;;;;;;;11.03;66.13;95007.44;5068035;28;20018;-65
2022/09/17 07:24:15;;;;;;;;;;;;;;;11.32;66.62;95012.22;5069717;28;20021;-65
2022/09/17 07:26:41;;;;;;;;;;;;;;;11.67;66.33;95004.25;5052140;28;20013;-64
2022/09/17 07:29:06;;;;;;;;;;;;;;;11.79;65.48;95007.06;5069357;28;20018;-64
2022/09/17 07:31:32;;;;;;;;;;;;;;;10.98;66.85;95012.13;5067842;28;20013;-64
2022/09/17 07:33:58;;;;;;;;;;;;;;;11.31;65.61;94994.66;5068034;28;20017;-65
2022/09/17 07:36:23;;;;;;;;;;;;;;;11.76;64.32;94990.91;5068415;28;20690;-65
2022/09/17 07:38:48;;;;;;;;;;;;;;;11.70;65.37;94985.75;5056559;28;20235;-65
2022/09/17 07:41:15;;;;;;;;;;;;;;;11.91;63.34;94993.91;5065732;28;20058;-67
2022/09/17 07:43:40;;;;;;;;;;;;;;;11.57;63.98;94985.91;5050213;28;20024;-64
2022/09/17 07:46:07;;;;;;;;;;;;;;;11.63;63.46;94971.34;5069425;28;20477;-66
2022/09/17 07:48:32;;;;;;;;;;;;;;;11.47;62.87;94995.00;5049963;28;20165;-65
2022/09/17 07:50:58;;;;;;;;;;;;;;;11.84;62.51;94974.94;5068632;28;20045;-64
2022/09/17 07:53:23;;;;;;;;;;;;;;;11.80;62.88;94978.53;5067899;28;20013;-65
2022/09/17 07:55:52;;;;;;;;;;;;;;;12.05;62.50;94979.63;5069860;28;20017;-65
2022/09/17 07:58:17;;;;;;;;;;;;;;;12.47;61.42;94975.28;5068718;28;20020;-65
2022/09/17 08:00:42;;;;;;;;;;;;;;;11.89;62.35;94985.44;5067540;28;20013;-64
2022/09/17 08:03:08;;;;;;;;;;;;;;;11.73;61.86;95005.66;5068807;28;20104;-65
2022/09/17 08:05:33;;;;;;;;;;;;;;;12.31;60.58;94983.00;5068495;28;20125;-64
2022/09/17 08:07:58;;;;;;;;;;;;;;;12.18;60.78;94989.31;5065667;28;20060;-64
2022/09/17 08:10:23;;;;;;;;;;;;;;;12.66;59.54;94988.25;5067734;28;20009;-64
2022/09/17 08:12:49;;;;;;;;;;;;;;;12.70;58.85;94989.16;5067162;28;20107;-65
2022/09/17 08:15:15;;;;;;;;;;;;;;;12.73;58.40;94991.97;5067230;28;20089;-65
2022/09/17 08:17:44;;;;;;;;;;;;;;;12.42;59.86;95002.91;5055776;28;20036;-65
2022/09/17 08:20:09;;;;;;;;;;;;;;;12.15;61.02;95003.28;5068172;28;20020;-65
2022/09/17 08:22:34;;;;;;;;;;;;;;;12.28;60.64;94998.84;5067803;28;20013;-65
2022/09/17 08:25:00;;;;;;;;;;;;;;;12.97;59.29;94988.72;5052383;28;20036;-65
2022/09/17 08:27:25;;;;;;;;;;;;;;;13.17;58.88;94997.88;5067921;28;20017;-65
2022/09/17 08:29:50;;;;;;;;;;;;;;;13.05;57.38;94997.00;5049429;28;20013;-65
2022/09/17 08:32:15;;;;;;;;;;;;;;;12.44;59.44;95000.72;5066202;28;20112;-65
2022/09/17 08:34:41;;;;;;;;;;;;;;;12.89;58.95;95013.56;5050337;28;20116;-65
2022/09/17 08:37:06;;;;;;;;;;;;;;;12.66;57.71;95014.94;5067013;28;20013;-65
2022/09/17 08:39:31;;;;;;;;;;;;;;;12.58;57.60;95016.50;5048189;28;20104;-66
2022/09/17 08:42:19;;;;;;;;;;;;;;;12.55;58.24;95008.38;5051002;28;20057;-65
2022/09/17 08:44:46;;;;;;;;;;;;;;;12.98;57.05;95018.88;5068547;28;20009;-65
2022/09/17 08:47:17;;;;;;;;;;;;;;;12.38;58.84;95028.63;5070258;28;20062;-70
2022/09/17 08:49:48;;;;;;;;;;;;;;;12.60;57.45;95037.56;5070979;28;20023;-65
2022/09/17 08:52:14;;;;;;;;;;;;;;;12.26;57.35;95038.41;5073452;28;20024;-65
2022/09/17 08:54:59;;;;;;;;;;;;;;;11.80;58.36;95055.81;5056719;28;20477;-67
2022/09/17 08:57:30;;;;;;;;;;;;;;;12.56;57.69;95034.72;5074422;28;20052;-66
2022/09/17 09:00:08;;;;;;;;;;;;;;;13.06;56.29;95033.28;5074539;28;20013;-64
2022/09/17 09:02:46;;;;;;;;;;;;;;;12.97;57.26;95041.34;5073874;28;20056;-64
2022/09/17 09:05:17;;;;;;;;;;;;;;;13.88;54.90;95033.75;5041681;28;20015;-66
2022/09/17 09:07:46;;;;;;;;;;;;;;;12.84;55.33;95043.09;5073417;28;20602;-68
2022/09/17 09:10:12;;;;;;;;;;;;;;;13.29;55.22;95039.94;5054982;28;20009;-67
2022/09/17 09:12:38;;;;;;;;;;;;;;;13.14;55.82;95048.47;5074096;28;20422;-65
2022/09/17 09:15:04;;;;;;;;;;;;;;;13.61;55.70;95043.81;5075139;28;20373;-66
2022/09/17 09:17:42;;;;;;;;;;;;;;;13.42;56.87;95043.50;5075287;28;20010;-64
2022/09/17 09:20:15;;;;;;;;;;;;;;;12.69;57.70;95048.97;5074373;28;20069;-64
2022/09/17 09:22:48;;;;;;;;;;;;;;;12.66;57.99;95050.41;5074511;28;20161;-63
2022/09/17 09:25:25;;;;;;;;;;;;;;;12.59;58.48;95039.44;5056870;28;20013;-64
2022/09/17 09:28:03;;;;;;;;;;;;;;;12.36;59.65;95059.41;5071919;28;20065;-65
2022/09/17 09:30:48;;;;;;;;;;;;;;;12.70;58.28;95045.22;5072949;28;20020;-63
2022/09/17 09:33:16;;;;;;;;;;;;;;;12.75;57.84;95048.50;5023403;28;20031;-63
2022/09/17 09:35:43;;;;;;;;;;;;;;;13.39;56.56;95047.59;5072370;28;20013;-63
2022/09/17 09:38:08;;;;;;;;;;;;;;;12.97;57.42;95052.00;5072235;28;20072;-63
2022/09/17 09:40:41;;;;;;;;;;;;;;;12.82;57.40;95055.22;5072742;28;20515;-64
2022/09/17 09:43:18;;;;;;;;;;;;;;;13.60;56.64;95057.50;5064856;28;20439;-62
2022/09/17 09:45:53;;;;;;;;;;;;;;;13.53;56.39;95064.16;5074057;28;20013;-63
2022/09/17 09:48:37;;;;;;;;;;;;;;;13.41;56.07;95057.94;5071999;28;20008;-62
2022/09/17 09:51:18;;;;;;;;;;;;;;;12.27;57.88;95067.41;5073949;28;20036;-64
2022/09/17 09:53:50;;;;;;;;;;;;;;;12.26;60.15;95075.75;5074434;28;20020;-63
2022/09/17 09:56:34;;;;;;;;;;;;;;;11.64;63.69;95063.47;5074026;28;20017;-64
2022/09/17 09:59:00;;;;;;;;;;;;;;;11.36;63.78;95063.75;5056167;28;20067;-64
2022/09/17 10:01:26;;;;;;;;;;;;;;;11.12;64.00;95002.16;5063265;28;20013;-62
2022/09/17 10:03:52;;;;;;;;;;;;;;;11.71;64.21;95075.22;5074004;28;20627;-62
2022/09/17 10:06:18;;;;;;;;;;;;;;;11.75;64.66;95072.72;5071021;28;20097;-62
2022/09/17 10:08:56;;;;;;;;;;;;;;;11.68;66.38;95085.75;5069296;28;20104;-64
2022/09/17 10:11:34;;;;;;;;;;;;;;;10.88;66.74;95066.41;5062377;28;20039;-62
2022/09/17 10:14:18;;;;;;;;;;;;;;;11.23;67.67;95067.31;5053901;28;20358;-63
2022/09/17 10:16:43;;;;;;;;;;;;;;;10.94;68.59;95081.94;5049173;28;20017;-63
2022/09/17 10:19:08;;;;;;;;;;;;;;;10.59;70.82;95083.63;5062355;28;20014;-63
2022/09/17 10:21:35;;;;;;;;;;;;;;;10.41;71.77;95082.75;5072068;28;20091;-63
2022/09/17 10:24:02;;;;;;;;;;;;;;;10.41;74.43;95090.75;5070860;28;20013;-63
2022/09/17 10:26:35;;;;;;;;;;;;;;;10.99;74.09;95089.00;5070250;28;20013;-64
2022/09/17 10:29:13;;;;;;;;;;;;;;;10.94;75.31;95089.91;5069657;28;20032;-63
2022/09/17 10:31:46;;;;;;;;;;;;;;;10.45;75.98;95084.81;5070879;28;20068;-64
2022/09/17 10:34:18;;;;;;;;;;;;;;;11.04;76.59;95088.84;5069359;28;20013;-62
2022/09/17 10:36:44;;;;;;;;;;;;;;;10.70;77.33;95083.38;5037127;28;20118;-63
2022/09/17 10:39:31;;;;;;;;;;;;;;;10.91;76.57;95087.88;5069060;28;20036;-62
2022/09/17 10:42:15;;;;;;;;;;;;;;;9.84;78.79;95090.44;5068972;28;20051;-64
2022/09/17 10:44:50;;;;;;;;;;;;;;;10.10;79.98;95079.25;5051806;28;20377;-63
2022/09/17 10:47:20;;;;;;;;;;;;;;;10.37;77.83;95073.03;5070998;28;20020;-63
2022/09/17 10:49:48;;;;;;;;;;;;;;;10.83;77.18;95064.66;5052689;28;20020;-62
2022/09/17 10:52:20;;;;;;;;;;;;;;;10.61;77.13;95080.69;5070529;28;20024;-62
2022/09/17 10:54:58;;;;;;;;;;;;;;;11.30;77.99;95067.63;5071008;28;20477;-62
2022/09/17 10:57:36;;;;;;;;;;;;;;;11.00;74.53;95071.94;5070046;28;20016;-62
2022/09/17 11:00:15;;;;;;;;;;;;;;;10.85;77.28;95075.81;5069440;28;20111;-62
2022/09/17 11:02:59;;;;;;;;;;;;;;;10.75;78.24;95072.59;5060403;28;20020;-63
2022/09/17 11:05:30;;;;;;;;;;;;;;;11.22;77.89;95071.06;5054697;28;20046;-63
2022/09/17 11:08:01;;;;;;;;;;;;;;;11.16;78.71;95074.97;5070766;28;20681;-63
2022/09/17 11:10:34;;;;;;;;;;;;;;;10.82;77.60;95076.41;5051139;28;20542;-63
2022/09/17 11:13:16;;;;;;;;;;;;;;;10.75;79.59;95073.41;5070274;28;20024;-63
2022/09/17 11:16:00;;;;;;;;;;;;;;;11.02;77.23;95084.94;5067582;28;20025;-63
2022/09/17 11:18:31;;;;;;;;;;;;;;;10.60;75.98;95081.78;5063291;28;20054;-64
2022/09/17 11:21:07;;;;;;;;;;;;;;;10.80;77.28;95072.47;5070820;28;20021;-64
2022/09/17 11:23:38;;;;;;;;;;;;;;;10.59;77.95;95075.66;5069701;28;20020;-64
2022/09/17 11:26:22;;;;;;;;;;;;;;;10.86;77.01;95072.03;5091614;22;20499;-68
2022/09/17 11:28:56;;;;;;;;;;;;;;;11.69;73.41;95074.00;5111840;27;20516;-67
2022/09/17 11:31:37;;;;;;;;;;;;;;;11.57;75.19;95065.84;5131236;27;20099;-67
2022/09/17 11:34:08;;;;;;;;;;;;;;;11.16;76.48;95067.00;5111077;28;20052;-68
2022/09/17 11:36:47;;;;;;;;;;;;;;;10.86;76.29;95060.63;5110096;28;20060;-69
2022/09/17 11:39:20;;;;;;;;;;;;;;;11.41;75.03;95063.63;5091229;28;20009;-68
2022/09/17 11:41:47;;;;;;;;;;;;;;;11.93;75.24;95055.69;5110143;28;20008;-68
2022/09/17 11:44:19;;;;;;;;;;;;;;;12.29;71.92;95059.91;5089099;28;20008;-69
2022/09/17 11:46:55;;;;;;;;;;;;;;;11.50;71.76;95065.50;5110007;28;20103;-69
2022/09/17 11:49:39;;;;;;;;;;;;;;;11.59;72.88;95066.28;5108010;28;20012;-68
2022/09/17 11:52:08;;;;;;;;;;;;;;;11.27;72.67;95067.50;5103601;28;20027;-67
2022/09/17 11:54:41;;;;;;;;;;;;;;;11.36;73.24;95063.75;5087232;28;20041;-67
2022/09/17 11:57:17;;;;;;;;;;;;;;;12.25;71.99;95056.28;5088789;28;20031;-68
2022/09/17 11:59:52;;;;;;;;;;;;;;;12.70;69.40;95046.00;5091108;28;20114;-68
2022/09/17 12:02:21;;;;;;;;;;;;;;;12.52;67.80;95046.34;5108450;28;20058;-68
2022/09/17 12:04:52;;;;;;;;;;;;;;;13.14;66.53;95032.44;5092218;28;20016;-68
2022/09/17 12:07:17;;;;;;;;;;;;;;;12.89;67.15;95029.56;5110317;28;20052;-67
2022/09/17 12:09:47;;;;;;;;;;;;;;;12.07;67.57;95033.41;5103917;28;20522;-67
2022/09/17 12:12:15;;;;;;;;;;;;;;;12.31;68.89;95030.25;5110896;28;20012;-68
2022/09/17 12:14:50;;;;;;;;;;;;;;;12.24;68.77;95025.41;5109675;28;20016;-68
2022/09/17 12:17:38;;;;;;;;;;;;;;;12.31;68.34;95025.69;5109393;28;20418;-70
2022/09/17 12:20:08;;;;;;;;;;;;;;;12.04;67.35;95028.72;5087170;28;20102;-68
2022/09/17 12:22:36;;;;;;;;;;;;;;;11.78;69.83;95028.69;5110079;28;20056;-67
2022/09/17 12:25:01;;;;;;;;;;;;;;;11.14;69.91;95026.56;5086743;28;20004;-73
2022/09/17 12:27:27;;;;;;;;;;;;;;;10.99;71.72;95030.44;5083261;28;20499;-72
2022/09/17 12:30:07;;;;;;;;;;;;;;;10.78;73.68;95035.53;5074649;28;20031;-68
2022/09/17 12:32:35;;;;;;;;;;;;;;;10.85;74.24;95030.56;5089602;28;20012;-68
2022/09/17 12:35:27;;;;;;;;;;;;;;;10.87;76.22;95027.59;5108585;28;20028;-68
2022/09/17 12:37:52;;;;;;;;;;;;;;;10.65;77.46;95029.25;5105369;28;20518;-67
2022/09/17 12:40:17;;;;;;;;;;;;;;;11.23;76.85;95035.38;5089876;28;20015;-67
2022/09/17 12:42:48;;;;;;;;;;;;;;;10.89;74.69;95028.06;5090804;28;20013;-67
2022/09/17 12:45:38;;;;;;;;;;;;;;;11.23;76.36;95040.69;5108675;28;20009;-67
2022/09/17 12:48:13;;;;;;;;;;;;;;;11.08;74.97;95031.25;5108312;28;20009;-70
2022/09/17 12:50:54;;;;;;;;;;;;;;;11.59;73.14;95027.13;5085044;28;20013;-70
2022/09/17 12:53:28;;;;;;;;;;;;;;;12.21;72.58;95023.34;5090253;28;20009;-71
2022/09/17 12:55:54;;;;;;;;;;;;;;;12.02;69.71;95030.91;5093173;28;20556;-70
2022/09/17 12:58:33;;;;;;;;;;;;;;;12.66;70.16;95023.72;5083765;28;20541;-72
2022/09/17 13:01:02;;;;;;;;;;;;;;;12.97;67.15;95023.44;5108755;28;20468;-72